SUD026 MHTG-SKPS
Flight info
| Callsign | SUD026 |
|---|---|
| Flight time | N/A |
| Altitude | 35000 |
| Route | LIBIS1D LIBIS UA502 ULAPO/N0466F340 UA502 POXON/N0465F350 DCT VAPUK DCT PAKEX PAKEX1A |
| Aircraft | A320/M-SDFGHILORVWY/S |
Departure
| Time | 2026-05-05 17:06 |
|---|---|
| Airport | Toncontín Airport (MHTG) |
Arrival
| Time | N/A |
|---|---|
| Airport | Antonio Nariño Airport (SKPS) |
| Time | Latitude | Longitude | Altitude | Speed | Heading |
|---|---|---|---|---|---|
| 2026-05-05 16:32 | 14.06099 | -87.21871 | 3268 ft | 0 kts | 289° |
| 2026-05-05 16:53 | 14.06094 | -87.21853 | 3267 ft | 4 kts | 282° |
| 2026-05-05 16:53 | 14.06091 | -87.21826 | 3267 ft | 4 kts | 261° |
| 2026-05-05 16:53 | 14.06100 | -87.21804 | 3270 ft | 4 kts | 208° |
| 2026-05-05 16:54 | 14.06106 | -87.21801 | 3267 ft | 0 kts | 197° |
| 2026-05-05 16:59 | 14.06074 | -87.21811 | 3269 ft | 12 kts | 197° |
| 2026-05-05 16:59 | 14.05990 | -87.21839 | 3271 ft | 12 kts | 200° |
| 2026-05-05 16:59 | 14.05916 | -87.21868 | 3272 ft | 10 kts | 200° |
| 2026-05-05 17:00 | 14.05856 | -87.21890 | 3273 ft | 8 kts | 200° |
| 2026-05-05 17:00 | 14.05809 | -87.21908 | 3272 ft | 6 kts | 200° |
| 2026-05-05 17:00 | 14.05776 | -87.21919 | 3269 ft | 4 kts | 196° |
| 2026-05-05 17:00 | 14.05725 | -87.21934 | 3269 ft | 11 kts | 196° |
| 2026-05-05 17:01 | 14.05660 | -87.21958 | 3273 ft | 9 kts | 200° |
| 2026-05-05 17:01 | 14.05610 | -87.21976 | 3272 ft | 6 kts | 200° |
| 2026-05-05 17:01 | 14.05558 | -87.21995 | 3273 ft | 9 kts | 200° |
| 2026-05-05 17:01 | 14.05500 | -87.22017 | 3273 ft | 8 kts | 199° |
| 2026-05-05 17:02 | 14.05454 | -87.22033 | 3272 ft | 6 kts | 197° |
| 2026-05-05 17:02 | 14.05416 | -87.22042 | 3272 ft | 5 kts | 190° |
| 2026-05-05 17:02 | 14.05389 | -87.22047 | 3271 ft | 3 kts | 189° |
| 2026-05-05 17:02 | 14.05354 | -87.22052 | 3270 ft | 6 kts | 186° |
| 2026-05-05 17:03 | 14.05320 | -87.22035 | 3269 ft | 8 kts | 129° |
| 2026-05-05 17:03 | 14.05276 | -87.22007 | 3270 ft | 7 kts | 193° |
| 2026-05-05 17:03 | 14.05219 | -87.22005 | 3271 ft | 10 kts | 169° |
| 2026-05-05 17:03 | 14.05183 | -87.22028 | 3271 ft | 5 kts | 311° |
| 2026-05-05 17:04 | 14.05211 | -87.22035 | 3271 ft | 4 kts | 22° |
| 2026-05-05 17:04 | 14.05228 | -87.22028 | 3269 ft | 2 kts | 21° |
| 2026-05-05 17:04 | 14.05233 | -87.22026 | 3269 ft | 0 kts | 21° |
| 2026-05-05 17:05 | 14.05249 | -87.22019 | 3270 ft | 13 kts | 23° |
| 2026-05-05 17:06 | 14.05580 | -87.21901 | 3272 ft | 89 kts | 19° |
| 2026-05-05 17:06 | 14.06383 | -87.21616 | 3281 ft | 152 kts | 20° |
| 2026-05-05 17:06 | 14.07459 | -87.21216 | 3766 ft | 161 kts | 18° |
| 2026-05-05 17:06 | 14.08567 | -87.21045 | 4475 ft | 165 kts | 4° |
| 2026-05-05 17:07 | 14.09710 | -87.21023 | 5171 ft | 160 kts | 2° |
| 2026-05-05 17:07 | 14.10767 | -87.21040 | 5693 ft | 148 kts | 1° |
| 2026-05-05 17:07 | 14.11853 | -87.21027 | 5781 ft | 165 kts | 6° |
| 2026-05-05 17:07 | 14.13043 | -87.20956 | 5912 ft | 177 kts | 2° |
| 2026-05-05 17:08 | 14.14341 | -87.20949 | 5927 ft | 203 kts | 1° |
| 2026-05-05 17:08 | 14.15844 | -87.20958 | 6009 ft | 228 kts | 0° |
| 2026-05-05 17:08 | 14.17507 | -87.20978 | 6216 ft | 250 kts | 0° |
| 2026-05-05 17:08 | 14.19324 | -87.20921 | 6486 ft | 272 kts | 5° |
| 2026-05-05 17:09 | 14.21236 | -87.20739 | 7030 ft | 279 kts | 8° |
| 2026-05-05 17:09 | 14.23181 | -87.20509 | 7677 ft | 283 kts | 8° |
| 2026-05-05 17:09 | 14.25152 | -87.20267 | 8333 ft | 287 kts | 9° |
| 2026-05-05 17:09 | 14.27140 | -87.20021 | 9000 ft | 290 kts | 9° |
| 2026-05-05 17:10 | 14.29155 | -87.19764 | 9662 ft | 293 kts | 9° |
| 2026-05-05 17:10 | 14.31172 | -87.19376 | 10158 ft | 301 kts | 20° |
| 2026-05-05 17:10 | 14.33100 | -87.18340 | 10278 ft | 319 kts | 39° |
| 2026-05-05 17:10 | 14.34640 | -87.16666 | 10379 ft | 336 kts | 58° |
| 2026-05-05 17:11 | 14.35659 | -87.14451 | 10636 ft | 348 kts | 70° |
| 2026-05-05 17:11 | 14.36532 | -87.12097 | 11124 ft | 354 kts | 69° |
| 2026-05-05 17:11 | 14.37426 | -87.09722 | 11676 ft | 357 kts | 69° |
| 2026-05-05 17:11 | 14.38321 | -87.07323 | 12220 ft | 360 kts | 72° |
| 2026-05-05 17:12 | 14.38700 | -87.05732 | 12556 ft | 361 kts | 82° |
| 2026-05-05 17:12 | 14.38760 | -87.03652 | 12979 ft | 363 kts | 96° |
| 2026-05-05 17:12 | 14.38165 | -87.01120 | 13514 ft | 367 kts | 112° |
| 2026-05-05 17:12 | 14.36854 | -86.98856 | 14019 ft | 371 kts | 129° |
| 2026-05-05 17:13 | 14.34955 | -86.97034 | 14478 ft | 376 kts | 140° |
| 2026-05-05 17:13 | 14.32903 | -86.95349 | 14947 ft | 379 kts | 140° |
| 2026-05-05 17:13 | 14.30829 | -86.93652 | 15383 ft | 382 kts | 140° |
| 2026-05-05 17:13 | 14.28736 | -86.91942 | 15809 ft | 386 kts | 139° |
| 2026-05-05 17:14 | 14.26627 | -86.90219 | 16260 ft | 389 kts | 139° |
| 2026-05-05 17:14 | 14.24501 | -86.88477 | 16721 ft | 391 kts | 139° |
| 2026-05-05 17:14 | 14.22306 | -86.86803 | 17137 ft | 397 kts | 147° |
| 2026-05-05 17:14 | 14.19737 | -86.85697 | 17525 ft | 406 kts | 163° |
| 2026-05-05 17:15 | 14.16911 | -86.85391 | 17919 ft | 414 kts | 181° |
| 2026-05-05 17:15 | 14.14062 | -86.85962 | 18313 ft | 422 kts | 198° |
| 2026-05-05 17:15 | 14.11458 | -86.87391 | 18666 ft | 428 kts | 215° |
| 2026-05-05 17:15 | 14.09073 | -86.89247 | 19034 ft | 431 kts | 216° |
| 2026-05-05 17:16 | 14.06682 | -86.91133 | 19416 ft | 434 kts | 216° |
| 2026-05-05 17:16 | 14.04281 | -86.93030 | 19777 ft | 436 kts | 216° |
| 2026-05-05 17:16 | 14.01862 | -86.94940 | 20188 ft | 439 kts | 216° |
| 2026-05-05 17:16 | 13.99432 | -86.96854 | 20543 ft | 442 kts | 216° |
| 2026-05-05 17:17 | 13.96982 | -86.98776 | 20924 ft | 444 kts | 216° |
| 2026-05-05 17:17 | 13.94517 | -87.00706 | 21289 ft | 446 kts | 216° |
| 2026-05-05 17:17 | 13.92041 | -87.02644 | 21658 ft | 448 kts | 216° |
| 2026-05-05 17:17 | 13.89550 | -87.04595 | 21972 ft | 451 kts | 216° |
| 2026-05-05 17:18 | 13.87050 | -87.06554 | 22327 ft | 453 kts | 216° |
| 2026-05-05 17:18 | 13.84539 | -87.08523 | 22667 ft | 455 kts | 216° |
| 2026-05-05 17:18 | 13.82011 | -87.10501 | 23040 ft | 457 kts | 216° |
| 2026-05-05 17:18 | 13.79474 | -87.12486 | 23357 ft | 459 kts | 216° |
| 2026-05-05 17:19 | 13.76927 | -87.14479 | 23677 ft | 461 kts | 216° |
| 2026-05-05 17:19 | 13.74366 | -87.16480 | 23890 ft | 463 kts | 216° |
| 2026-05-05 17:19 | 13.71797 | -87.18487 | 24163 ft | 465 kts | 216° |
| 2026-05-05 17:19 | 13.69212 | -87.20488 | 24429 ft | 465 kts | 213° |
| 2026-05-05 17:20 | 13.66390 | -87.22089 | 24685 ft | 464 kts | 200° |
| 2026-05-05 17:20 | 13.63297 | -87.22980 | 24924 ft | 461 kts | 186° |
| 2026-05-05 17:20 | 13.60110 | -87.23116 | 25124 ft | 458 kts | 172° |
| 2026-05-05 17:20 | 13.56994 | -87.22514 | 25343 ft | 455 kts | 159° |
| 2026-05-05 17:21 | 13.54112 | -87.21220 | 25577 ft | 451 kts | 147° |
| 2026-05-05 17:21 | 13.51526 | -87.19406 | 25829 ft | 451 kts | 141° |
| 2026-05-05 17:21 | 13.48973 | -87.17516 | 26059 ft | 453 kts | 142° |
| 2026-05-05 17:22 | 13.43839 | -87.13713 | 26445 ft | 457 kts | 142° |
| 2026-05-05 17:22 | 13.41257 | -87.11803 | 26662 ft | 459 kts | 142° |
| 2026-05-05 17:22 | 13.38708 | -87.09917 | 26876 ft | 460 kts | 142° |
| 2026-05-05 17:22 | 13.36106 | -87.07991 | 27082 ft | 462 kts | 142° |
| 2026-05-05 17:23 | 13.33485 | -87.06049 | 27293 ft | 464 kts | 142° |
| 2026-05-05 17:23 | 13.30862 | -87.04107 | 27478 ft | 465 kts | 142° |
| 2026-05-05 17:23 | 13.28242 | -87.02171 | 27664 ft | 467 kts | 142° |
| 2026-05-05 17:23 | 13.25600 | -87.00218 | 27864 ft | 469 kts | 142° |
| 2026-05-05 17:24 | 13.22951 | -86.98259 | 28061 ft | 470 kts | 142° |
| 2026-05-05 17:24 | 13.20293 | -86.96292 | 28241 ft | 472 kts | 142° |
| 2026-05-05 17:24 | 13.17628 | -86.94323 | 28424 ft | 473 kts | 142° |
| 2026-05-05 17:24 | 13.14949 | -86.92348 | 28588 ft | 475 kts | 142° |
| 2026-05-05 17:25 | 13.12300 | -86.90389 | 28734 ft | 477 kts | 142° |
| 2026-05-05 17:25 | 13.10490 | -86.89035 | 28840 ft | 478 kts | 142° |
| 2026-05-05 17:25 | 13.06904 | -86.86326 | 29043 ft | 480 kts | 142° |
| 2026-05-05 17:25 | 13.04219 | -86.84287 | 29173 ft | 481 kts | 142° |
| 2026-05-05 17:26 | 13.01563 | -86.82272 | 29343 ft | 481 kts | 142° |
| 2026-05-05 17:26 | 12.98831 | -86.80210 | 29570 ft | 481 kts | 142° |
| 2026-05-05 17:26 | 12.96170 | -86.78208 | 29788 ft | 481 kts | 142° |
| 2026-05-05 17:26 | 12.93473 | -86.76183 | 30002 ft | 480 kts | 142° |
| 2026-05-05 17:27 | 12.90770 | -86.74171 | 30183 ft | 480 kts | 142° |
| 2026-05-05 17:27 | 12.88059 | -86.72166 | 30349 ft | 481 kts | 143° |
| 2026-05-05 17:27 | 12.85346 | -86.70167 | 30530 ft | 480 kts | 143° |
| 2026-05-05 17:27 | 12.82633 | -86.68166 | 30714 ft | 480 kts | 143° |
| 2026-05-05 17:28 | 12.79927 | -86.66163 | 30898 ft | 480 kts | 143° |
| 2026-05-05 17:28 | 12.77222 | -86.64156 | 31087 ft | 480 kts | 142° |
| 2026-05-05 17:28 | 12.74524 | -86.62149 | 31259 ft | 480 kts | 142° |
| 2026-05-05 17:28 | 12.71980 | -86.60256 | 31433 ft | 479 kts | 142° |
| 2026-05-05 17:29 | 12.69505 | -86.58417 | 31630 ft | 479 kts | 143° |
| 2026-05-05 17:29 | 12.66886 | -86.56481 | 31834 ft | 478 kts | 143° |
| 2026-05-05 17:29 | 12.64186 | -86.54488 | 32002 ft | 479 kts | 143° |
| 2026-05-05 17:29 | 12.61492 | -86.52500 | 32189 ft | 478 kts | 143° |
| 2026-05-05 17:30 | 12.58789 | -86.50505 | 32417 ft | 477 kts | 143° |
| 2026-05-05 17:30 | 12.56104 | -86.48522 | 32639 ft | 476 kts | 143° |
| 2026-05-05 17:30 | 12.53416 | -86.46533 | 32807 ft | 477 kts | 142° |
| 2026-05-05 17:30 | 12.50731 | -86.44545 | 32967 ft | 477 kts | 142° |
| 2026-05-05 17:31 | 12.48039 | -86.42555 | 33180 ft | 476 kts | 143° |
| 2026-05-05 17:31 | 12.45354 | -86.40572 | 33355 ft | 477 kts | 142° |
| 2026-05-05 17:31 | 12.42852 | -86.38724 | 33491 ft | 478 kts | 143° |
| 2026-05-05 17:31 | 12.40156 | -86.36733 | 33705 ft | 477 kts | 143° |
| 2026-05-05 17:32 | 12.37467 | -86.34749 | 33895 ft | 477 kts | 143° |
| 2026-05-05 17:32 | 12.34944 | -86.32890 | 34094 ft | 475 kts | 143° |
| 2026-05-05 17:32 | 12.32594 | -86.31154 | 34225 ft | 475 kts | 142° |
| 2026-05-05 17:32 | 12.29833 | -86.29109 | 34397 ft | 475 kts | 143° |
| 2026-05-05 17:33 | 12.27158 | -86.27134 | 34607 ft | 473 kts | 143° |
| 2026-05-05 17:33 | 12.24489 | -86.25170 | 34772 ft | 473 kts | 143° |
| 2026-05-05 17:33 | 12.21821 | -86.23205 | 34891 ft | 472 kts | 143° |
| 2026-05-05 17:34 | 12.16482 | -86.19267 | 34920 ft | 473 kts | 143° |
| 2026-05-05 17:34 | 12.11373 | -86.15071 | 34920 ft | 471 kts | 137° |
| 2026-05-05 17:35 | 12.06466 | -86.10635 | 34922 ft | 471 kts | 137° |
| 2026-05-05 17:35 | 12.01550 | -86.06188 | 34921 ft | 472 kts | 137° |
| 2026-05-05 17:36 | 11.96647 | -86.01756 | 34925 ft | 470 kts | 137° |
| 2026-05-05 17:36 | 11.91755 | -85.97337 | 34928 ft | 469 kts | 137° |
| 2026-05-05 17:37 | 11.86865 | -85.92925 | 34933 ft | 469 kts | 137° |
| 2026-05-05 17:37 | 11.81981 | -85.88526 | 34933 ft | 467 kts | 137° |
| 2026-05-05 17:38 | 11.77108 | -85.84128 | 34931 ft | 467 kts | 138° |
| 2026-05-05 17:38 | 11.72240 | -85.79739 | 34932 ft | 467 kts | 137° |
| 2026-05-05 17:39 | 11.67403 | -85.75385 | 34929 ft | 467 kts | 137° |
| 2026-05-05 17:39 | 11.62518 | -85.70982 | 34931 ft | 469 kts | 137° |
| 2026-05-05 17:40 | 11.57628 | -85.66579 | 34932 ft | 469 kts | 137° |
| 2026-05-05 17:40 | 11.52734 | -85.62178 | 34933 ft | 468 kts | 138° |
| 2026-05-05 17:41 | 11.47860 | -85.57794 | 34934 ft | 467 kts | 138° |
| 2026-05-05 17:41 | 11.42991 | -85.53412 | 34934 ft | 467 kts | 138° |
| 2026-05-05 17:42 | 11.38907 | -85.49745 | 34939 ft | 467 kts | 137° |
| 2026-05-05 17:42 | 11.34133 | -85.45313 | 34939 ft | 467 kts | 136° |
| 2026-05-05 17:43 | 11.29416 | -85.40751 | 34940 ft | 468 kts | 135° |
| 2026-05-05 17:43 | 11.24697 | -85.36184 | 34943 ft | 469 kts | 136° |
| 2026-05-05 17:44 | 11.19926 | -85.31630 | 34941 ft | 470 kts | 136° |
| 2026-05-05 17:44 | 11.15132 | -85.27093 | 34945 ft | 471 kts | 136° |
| 2026-05-05 17:45 | 11.10346 | -85.22546 | 34947 ft | 471 kts | 136° |
| 2026-05-05 17:45 | 11.05561 | -85.17997 | 34948 ft | 471 kts | 136° |
| 2026-05-05 17:46 | 11.00692 | -85.13523 | 34946 ft | 472 kts | 138° |
| 2026-05-05 17:46 | 10.95732 | -85.09203 | 34953 ft | 472 kts | 139° |
| 2026-05-05 17:47 | 10.90746 | -85.04873 | 34950 ft | 470 kts | 138° |
| 2026-05-05 17:47 | 10.85793 | -85.00497 | 34951 ft | 473 kts | 137° |
| 2026-05-05 17:48 | 10.80833 | -84.96089 | 34952 ft | 473 kts | 138° |
| 2026-05-05 17:48 | 10.75863 | -84.91697 | 34951 ft | 473 kts | 138° |
| 2026-05-05 17:49 | 10.70913 | -84.87326 | 34950 ft | 471 kts | 138° |
| 2026-05-05 17:49 | 10.70296 | -84.86782 | 34950 ft | 471 kts | 138° |
| 2026-05-05 17:50 | 10.65639 | -84.82687 | 34952 ft | 470 kts | 138° |
| 2026-05-05 17:51 | 10.60691 | -84.78320 | 34957 ft | 473 kts | 138° |
| 2026-05-05 17:51 | 10.55718 | -84.73929 | 34956 ft | 473 kts | 138° |
| 2026-05-05 17:52 | 10.50749 | -84.69547 | 34963 ft | 471 kts | 138° |
| 2026-05-05 17:52 | 10.45810 | -84.65197 | 34966 ft | 470 kts | 138° |
| 2026-05-05 17:53 | 10.40855 | -84.60842 | 34970 ft | 472 kts | 138° |
| 2026-05-05 17:53 | 10.35895 | -84.56475 | 34975 ft | 472 kts | 138° |
| 2026-05-05 17:54 | 10.30928 | -84.52107 | 34975 ft | 472 kts | 138° |
| 2026-05-05 17:54 | 10.25954 | -84.47743 | 34978 ft | 473 kts | 138° |
| 2026-05-05 17:55 | 10.20979 | -84.43388 | 34979 ft | 471 kts | 139° |
| 2026-05-05 17:55 | 10.16026 | -84.39061 | 34979 ft | 470 kts | 138° |
| 2026-05-05 17:56 | 10.11095 | -84.34748 | 35064 ft | 466 kts | 139° |
| 2026-05-05 17:56 | 10.06229 | -84.30494 | 35088 ft | 465 kts | 138° |
| 2026-05-05 17:57 | 10.01331 | -84.26211 | 35103 ft | 465 kts | 139° |
| 2026-05-05 17:57 | 9.96445 | -84.21915 | 35100 ft | 465 kts | 138° |
| 2026-05-05 17:58 | 9.91659 | -84.17498 | 35128 ft | 465 kts | 137° |
| 2026-05-05 17:58 | 9.86925 | -84.13026 | 35128 ft | 465 kts | 137° |
| 2026-05-05 17:59 | 9.82174 | -84.08585 | 35010 ft | 464 kts | 137° |
| 2026-05-05 17:59 | 9.77399 | -84.04169 | 35029 ft | 465 kts | 137° |
| 2026-05-05 18:00 | 9.72623 | -83.99761 | 35027 ft | 464 kts | 137° |
| 2026-05-05 18:00 | 9.67845 | -83.95354 | 35030 ft | 464 kts | 137° |
| 2026-05-05 18:01 | 9.63078 | -83.90943 | 35026 ft | 464 kts | 137° |
| 2026-05-05 18:01 | 9.58310 | -83.86531 | 35027 ft | 464 kts | 137° |
| 2026-05-05 18:02 | 9.53532 | -83.82131 | 35027 ft | 464 kts | 137° |
| 2026-05-05 18:02 | 9.48754 | -83.77741 | 35027 ft | 464 kts | 137° |
| 2026-05-05 18:03 | 9.43971 | -83.73352 | 35015 ft | 464 kts | 137° |
| 2026-05-05 18:03 | 9.39200 | -83.68964 | 35018 ft | 463 kts | 137° |
| 2026-05-05 18:04 | 9.34437 | -83.64581 | 35016 ft | 462 kts | 137° |
| 2026-05-05 18:04 | 9.29673 | -83.60207 | 34986 ft | 462 kts | 137° |
| 2026-05-05 18:05 | 9.24914 | -83.55833 | 34986 ft | 462 kts | 137° |
| 2026-05-05 18:05 | 9.20154 | -83.51462 | 34986 ft | 462 kts | 137° |
| 2026-05-05 18:06 | 9.15394 | -83.47088 | 34944 ft | 462 kts | 137° |
| 2026-05-05 18:06 | 9.10637 | -83.42719 | 34962 ft | 462 kts | 137° |
| 2026-05-05 18:07 | 9.05874 | -83.38354 | 34960 ft | 462 kts | 137° |
| 2026-05-05 18:07 | 9.01107 | -83.33988 | 34929 ft | 462 kts | 137° |
| 2026-05-05 18:08 | 8.96346 | -83.29628 | 34951 ft | 461 kts | 137° |
| 2026-05-05 18:08 | 8.91594 | -83.25271 | 34950 ft | 461 kts | 136° |
| 2026-05-05 18:09 | 8.86839 | -83.20913 | 34929 ft | 461 kts | 136° |
| 2026-05-05 18:09 | 8.82089 | -83.16565 | 34929 ft | 461 kts | 136° |
| 2026-05-05 18:10 | 8.77335 | -83.12219 | 34942 ft | 460 kts | 136° |
| 2026-05-05 18:10 | 8.72582 | -83.07877 | 34923 ft | 461 kts | 136° |
| 2026-05-05 18:11 | 8.67861 | -83.03561 | 34920 ft | 461 kts | 136° |
| 2026-05-05 18:11 | 8.63111 | -82.99151 | 34930 ft | 461 kts | 132° |
| 2026-05-05 18:12 | 8.59513 | -82.93850 | 34929 ft | 458 kts | 113° |
| 2026-05-05 18:12 | 8.57013 | -82.87925 | 34909 ft | 459 kts | 116° |
| 2026-05-05 18:13 | 8.53287 | -82.82765 | 34913 ft | 461 kts | 135° |
| 2026-05-05 18:13 | 8.48243 | -82.78745 | 34912 ft | 463 kts | 142° |
| 2026-05-05 18:14 | 8.43085 | -82.74846 | 34910 ft | 463 kts | 142° |
| 2026-05-05 18:14 | 8.37922 | -82.70945 | 34895 ft | 464 kts | 142° |
| 2026-05-05 18:15 | 8.32749 | -82.67047 | 34894 ft | 464 kts | 142° |
| 2026-05-05 18:15 | 8.27578 | -82.63144 | 34897 ft | 464 kts | 142° |
| 2026-05-05 18:16 | 8.24616 | -82.60909 | 34895 ft | 463 kts | 142° |
| 2026-05-05 18:16 | 8.20345 | -82.57688 | 34895 ft | 463 kts | 142° |
| 2026-05-05 18:17 | 8.15182 | -82.53791 | 34896 ft | 463 kts | 142° |
| 2026-05-05 18:17 | 8.10016 | -82.49897 | 34900 ft | 463 kts | 142° |
| 2026-05-05 18:18 | 8.04846 | -82.46010 | 34904 ft | 463 kts | 142° |
| 2026-05-05 18:18 | 7.99683 | -82.42118 | 34904 ft | 464 kts | 142° |
| 2026-05-05 18:19 | 7.94517 | -82.38218 | 34902 ft | 463 kts | 142° |
| 2026-05-05 18:19 | 7.89359 | -82.34332 | 34904 ft | 463 kts | 142° |
| 2026-05-05 18:20 | 7.84190 | -82.30449 | 34905 ft | 463 kts | 142° |
| 2026-05-05 18:20 | 7.79024 | -82.26568 | 34909 ft | 463 kts | 142° |
| 2026-05-05 18:21 | 7.73863 | -82.22687 | 34902 ft | 463 kts | 142° |
| 2026-05-05 18:21 | 7.68705 | -82.18806 | 34909 ft | 462 kts | 142° |
| 2026-05-05 18:22 | 7.63547 | -82.14929 | 34896 ft | 463 kts | 142° |
| 2026-05-05 18:22 | 7.58389 | -82.11056 | 34910 ft | 463 kts | 142° |
| 2026-05-05 18:23 | 7.53227 | -82.07175 | 34897 ft | 463 kts | 142° |
| 2026-05-05 18:23 | 7.48072 | -82.03301 | 34914 ft | 462 kts | 142° |
| 2026-05-05 18:24 | 7.42913 | -81.99435 | 34899 ft | 462 kts | 142° |
| 2026-05-05 18:24 | 7.37759 | -81.95567 | 34911 ft | 462 kts | 142° |
| 2026-05-05 18:25 | 7.32605 | -81.91696 | 34899 ft | 462 kts | 142° |
| 2026-05-05 18:25 | 7.27448 | -81.87832 | 34911 ft | 462 kts | 142° |
| 2026-05-05 18:26 | 7.23165 | -81.84618 | 34913 ft | 462 kts | 142° |
| 2026-05-05 18:26 | 7.18007 | -81.80749 | 34905 ft | 462 kts | 142° |
| 2026-05-05 18:27 | 7.12846 | -81.76883 | 34911 ft | 462 kts | 142° |
| 2026-05-05 18:27 | 7.07690 | -81.73024 | 34902 ft | 462 kts | 142° |
| 2026-05-05 18:28 | 6.99957 | -81.67228 | 34914 ft | 462 kts | 142° |
| 2026-05-05 18:28 | 6.94802 | -81.63364 | 34900 ft | 462 kts | 142° |
| 2026-05-05 18:29 | 6.89645 | -81.59507 | 34909 ft | 462 kts | 142° |
| 2026-05-05 18:29 | 6.84490 | -81.55645 | 34895 ft | 462 kts | 142° |
| 2026-05-05 18:30 | 6.79332 | -81.51792 | 34912 ft | 462 kts | 142° |
| 2026-05-05 18:30 | 6.74178 | -81.47943 | 34904 ft | 459 kts | 142° |
| 2026-05-05 18:31 | 6.69056 | -81.44115 | 34905 ft | 458 kts | 142° |
| 2026-05-05 18:31 | 6.63940 | -81.40287 | 34910 ft | 458 kts | 142° |
| 2026-05-05 18:32 | 6.58863 | -81.36484 | 34910 ft | 458 kts | 142° |
| 2026-05-05 18:32 | 6.53741 | -81.32666 | 34906 ft | 458 kts | 142° |
| 2026-05-05 18:33 | 6.48616 | -81.28851 | 34909 ft | 458 kts | 142° |
| 2026-05-05 18:33 | 6.46055 | -81.26940 | 34911 ft | 460 kts | 142° |
| 2026-05-05 18:35 | 6.30503 | -81.15320 | 34909 ft | 467 kts | 142° |
| 2026-05-05 18:36 | 6.25286 | -81.11431 | 34913 ft | 467 kts | 142° |
| 2026-05-05 18:36 | 6.20073 | -81.07540 | 34909 ft | 467 kts | 142° |
| 2026-05-05 18:37 | 6.14860 | -81.03654 | 34908 ft | 467 kts | 142° |
| 2026-05-05 18:37 | 6.09644 | -80.99766 | 34911 ft | 467 kts | 142° |
| 2026-05-05 18:38 | 6.04430 | -80.95884 | 34910 ft | 467 kts | 142° |
| 2026-05-05 18:38 | 5.99214 | -80.91996 | 34901 ft | 466 kts | 142° |
| 2026-05-05 18:39 | 5.94019 | -80.88122 | 34902 ft | 465 kts | 142° |
| 2026-05-05 18:39 | 5.88828 | -80.84258 | 34905 ft | 464 kts | 142° |
| 2026-05-05 18:40 | 5.83636 | -80.80401 | 34898 ft | 464 kts | 142° |
| 2026-05-05 18:40 | 5.78447 | -80.76540 | 34905 ft | 464 kts | 142° |
| 2026-05-05 18:41 | 5.73263 | -80.72674 | 34897 ft | 464 kts | 142° |
| 2026-05-05 18:41 | 5.68081 | -80.68813 | 34905 ft | 464 kts | 142° |
| 2026-05-05 18:42 | 5.62922 | -80.64984 | 34895 ft | 464 kts | 142° |
| 2026-05-05 18:42 | 5.58563 | -80.61744 | 34903 ft | 466 kts | 142° |
| 2026-05-05 18:43 | 5.52507 | -80.57242 | 34900 ft | 466 kts | 142° |
| 2026-05-05 18:43 | 5.47291 | -80.53367 | 34897 ft | 466 kts | 142° |
| 2026-05-05 18:44 | 5.42927 | -80.50123 | 34901 ft | 466 kts | 142° |
| 2026-05-05 18:44 | 5.37709 | -80.46252 | 34903 ft | 466 kts | 142° |
| 2026-05-05 18:45 | 5.32498 | -80.42379 | 34899 ft | 466 kts | 142° |
| 2026-05-05 18:45 | 5.27290 | -80.38504 | 34895 ft | 466 kts | 142° |
| 2026-05-05 18:46 | 5.22084 | -80.34637 | 34900 ft | 465 kts | 142° |
| 2026-05-05 18:46 | 5.16889 | -80.30778 | 34903 ft | 465 kts | 142° |
| 2026-05-05 18:47 | 5.11691 | -80.26926 | 34901 ft | 464 kts | 142° |
| 2026-05-05 18:47 | 5.06494 | -80.23075 | 34895 ft | 464 kts | 142° |
| 2026-05-05 18:48 | 5.01297 | -80.19220 | 34895 ft | 464 kts | 142° |
| 2026-05-05 18:48 | 4.96142 | -80.15388 | 34896 ft | 464 kts | 142° |
| 2026-05-05 18:49 | 4.90961 | -80.11542 | 34896 ft | 463 kts | 142° |
| 2026-05-05 18:49 | 4.85779 | -80.07708 | 34892 ft | 462 kts | 142° |
| 2026-05-05 18:50 | 4.80610 | -80.03881 | 34894 ft | 462 kts | 142° |
| 2026-05-05 18:50 | 4.75448 | -80.00045 | 34903 ft | 462 kts | 142° |
| 2026-05-05 18:51 | 4.70279 | -79.96217 | 34896 ft | 462 kts | 142° |
| 2026-05-05 18:51 | 4.65112 | -79.92394 | 34892 ft | 462 kts | 142° |
| 2026-05-05 18:52 | 4.59946 | -79.88560 | 34900 ft | 462 kts | 142° |
| 2026-05-05 18:52 | 4.54777 | -79.84733 | 34893 ft | 462 kts | 142° |
| 2026-05-05 18:53 | 4.49610 | -79.80905 | 34899 ft | 462 kts | 142° |
| 2026-05-05 18:53 | 4.44440 | -79.77082 | 34890 ft | 462 kts | 142° |
| 2026-05-05 18:54 | 4.39270 | -79.73256 | 34891 ft | 462 kts | 142° |
| 2026-05-05 18:54 | 4.34106 | -79.69431 | 34894 ft | 462 kts | 142° |
| 2026-05-05 18:55 | 4.28939 | -79.65610 | 34894 ft | 462 kts | 142° |
| 2026-05-05 18:55 | 4.23769 | -79.61788 | 34884 ft | 462 kts | 142° |
| 2026-05-05 18:56 | 4.18607 | -79.57964 | 34890 ft | 462 kts | 142° |
| 2026-05-05 18:56 | 4.13440 | -79.54140 | 34897 ft | 462 kts | 142° |
| 2026-05-05 18:57 | 4.08271 | -79.50318 | 34888 ft | 462 kts | 142° |
| 2026-05-05 18:57 | 4.03099 | -79.46497 | 34892 ft | 462 kts | 142° |
| 2026-05-05 18:58 | 3.97930 | -79.42677 | 34886 ft | 462 kts | 142° |
| 2026-05-05 18:58 | 3.93067 | -79.39087 | 34891 ft | 461 kts | 142° |
| 2026-05-05 18:59 | 3.88060 | -79.35348 | 34887 ft | 460 kts | 141° |
| 2026-05-05 18:59 | 3.83045 | -79.31364 | 34866 ft | 460 kts | 138° |
| 2026-05-05 19:00 | 3.78255 | -79.27122 | 34847 ft | 459 kts | 135° |
| 2026-05-05 19:00 | 3.73789 | -79.22568 | 34838 ft | 458 kts | 130° |
| 2026-05-05 19:01 | 3.69726 | -79.17674 | 34815 ft | 457 kts | 125° |
| 2026-05-05 19:01 | 3.66122 | -79.12444 | 34797 ft | 455 kts | 120° |
| 2026-05-05 19:02 | 3.63035 | -79.06920 | 34794 ft | 454 kts | 115° |
| 2026-05-05 19:02 | 3.60507 | -79.01137 | 34762 ft | 453 kts | 109° |
| 2026-05-05 19:03 | 3.58575 | -78.95138 | 34733 ft | 453 kts | 103° |
| 2026-05-05 19:03 | 3.57275 | -78.88991 | 34741 ft | 451 kts | 97° |
| 2026-05-05 19:04 | 3.56635 | -78.82760 | 34736 ft | 450 kts | 91° |
| 2026-05-05 19:04 | 3.56674 | -78.76544 | 34713 ft | 449 kts | 85° |
| 2026-05-05 19:05 | 3.57408 | -78.70346 | 34710 ft | 448 kts | 79° |
| 2026-05-05 19:05 | 3.58772 | -78.64269 | 34725 ft | 447 kts | 75° |
| 2026-05-05 19:06 | 3.59574 | -78.61275 | 34852 ft | 444 kts | 73° |
| 2026-05-05 19:06 | 3.60452 | -78.58359 | 34994 ft | 441 kts | 71° |
| 2026-05-05 19:06 | 3.62066 | -78.52470 | 34998 ft | 445 kts | 77° |
| 2026-05-05 19:07 | 3.63138 | -78.46359 | 34806 ft | 430 kts | 81° |
| 2026-05-05 19:07 | 3.63547 | -78.43453 | 34428 ft | 414 kts | 82° |
| 2026-05-05 19:07 | 3.63905 | -78.40676 | 34642 ft | 389 kts | 82° |
| 2026-05-05 19:08 | 3.64231 | -78.38068 | 34768 ft | 369 kts | 82° |
| 2026-05-05 19:08 | 3.64548 | -78.35593 | 34332 ft | 367 kts | 81° |
| 2026-05-05 19:08 | 3.64721 | -78.34302 | 11 ft | 1 kts | 81° |
| 2026-05-05 19:08 | 3.64721 | -78.34300 | -3 ft | 0 kts | 82° |